FW2654 Weather Reports


Display with metric or nautical units.
time (UTC)temp
F
wind
direction
speed
MPH
gust
MPH
rain 1hr
in
rain 24hr
in
rain mn
in
humidity
%
barometer
mb
20200329064737 64 150 0.0 1.0 0.00 0.36 0.32 95 1004.8
20200329064236 64 171 0.0 0.0 0.00 0.36 0.32 96 1005.0
20200329063734 64 192 0.0 1.0 0.00 0.36 0.32 95 1005.0
20200329063234 64 193 0.0 1.0 0.00 0.36 0.32 95 1005.3
20200329062727 64 81 0.0 1.0 0.00 0.36 0.32 95 1005.3
20200329062226 64 114 0.0 0.0 0.00 0.36 0.32 95 1005.5
20200329061724 64 202 0.0 0.0 0.00 0.36 0.32 95 1005.7
20200329061224 64 84 0.0 0.0 0.00 0.36 0.32 94 1005.7
20200329060721 64 158 0.0 1.0 0.00 0.36 0.32 94 1005.7
20200329060219 64 159 0.0 1.0 0.00 0.36 0.32 94 1005.7
20200329055718 64 151 0.0 1.0 0.00 0.36 0.32 94 1005.7
20200329055218 65 159 0.0 1.0 0.02 0.36 0.32 94 1006.0
20200329054718 65 110 0.0 0.0 0.03 0.36 0.32 95 1006.1
20200329054216 65 157 0.0 0.0 0.05 0.36 0.32 94 1006.3
20200329053716 65 155 0.0 0.0 0.12 0.36 0.32 94 1006.5
20200329053215 65 155 0.0 0.0 0.13 0.36 0.32 94 1006.2
20200329052712 65 155 0.0 0.0 0.15 0.36 0.32 94 1006.2
20200329052212 65 155 0.0 0.0 0.16 0.36 0.32 94 1006.2
20200329051712 66 155 0.0 0.0 0.18 0.36 0.32 94 1006.5
20200329051210 66 155 0.0 0.0 0.27 0.36 0.32 94 1006.4
20200329050713 66 155 0.0 0.0 0.31 0.36 0.32 94 1006.5
20200329050207 66 100 0.0 0.0 0.32 0.36 0.32 94 1006.8
20200329045705 66 240 0.0 0.0 0.33 0.36 0.32 94 1007.0
20200329045203 67 107 0.0 0.0 0.31 0.34 0.31 93 1007.1
20200329044705 67 95 0.0 1.0 0.30 0.33 0.29 93 1008.4
20200329044204 67 249 0.0 1.0 0.28 0.31 0.27 93 1008.8
20200329043704 67 219 0.0 3.0 0.21 0.24 0.20 92 1008.9
20200329043200 67 232 0.0 3.0 0.19 0.22 0.19 91 1008.8
20200329042700 67 198 0.0 11.0 0.18 0.21 0.18 90 1009.0
20200329042159 68 272 0.0 11.0 0.17 0.20 0.16 88 1009.0
20200329041659 69 244 0.0 6.0 0.15 0.18 0.15 87 1008.6
20200329041158 70 175 0.0 6.0 0.06 0.09 0.07 84 1008.6
20200329040658 70 178 0.0 0.0 0.02 0.05 0.01 81 1008.2
20200329040154 71 167 0.0 0.0 0.01 0.04 0.00 79 1008.0
20200329035654 71 243 0.0 0.0 0.00 0.03 0.03 77 1007.9
20200329035154 71 261 0.0 0.0 0.00 0.03 0.03 76 1008.0
20200329034654 72 240 0.0 0.0 0.00 0.03 0.03 75 1007.8
20200329034152 72 169 0.0 0.0 0.00 0.03 0.03 75 1007.5
20200329033654 72 208 0.0 0.0 0.00 0.03 0.03 74 1007.3
20200329033144 72 166 0.0 0.0 0.00 0.03 0.03 74 1007.1
20200329032643 72 242 0.0 0.0 0.00 0.03 0.03 74 1006.9
20200329032143 72 207 0.0 0.0 0.00 0.03 0.03 74 1006.9
20200329031642 72 157 0.0 0.0 0.00 0.03 0.03 74 1006.9
20200329031144 72 157 0.0 0.0 0.00 0.03 0.03 74 1006.6
20200329030629 72 154 0.0 0.0 0.00 0.03 0.03 74 1006.9
20200329030131 72 89 0.0 0.0 0.00 0.03 0.03 75 1006.7
20200329025629 72 288 0.0 0.0 0.00 0.03 0.03 75 1006.7
20200329025130 72 103 0.0 0.0 0.00 0.03 0.03 75 1006.7
20200329024629 72 0 0.0 0.0 0.00 0.03 0.03 75 1006.7
20200329024133 71 166 0.0 0.0 0.00 0.03 0.03 75 1007.1
20200329023627 71 181 0.0 0.0 0.00 0.03 0.03 76 1007.4
20200329023128 71 157 0.0 0.0 0.00 0.03 0.03 76 1007.0
20200329022626 71 199 0.0 0.0 0.00 0.03 0.03 76 1007.0
20200329022124 71 90 0.0 0.0 0.00 0.03 0.03 76 1006.7
20200329021622 71 170 0.0 0.0 0.00 0.03 0.03 76 1007.0
20200329021124 71 171 0.0 0.0 0.00 0.03 0.03 76 1007.1
20200329020620 71 183 0.0 0.0 0.00 0.03 0.03 76 1007.2
20200329020117 71 193 0.0 0.0 0.00 0.03 0.03 76 1007.1
20200329015616 71 156 0.0 0.0 0.00 0.03 0.03 77 1007.1
20200329015116 71 153 0.0 0.0 0.00 0.03 0.03 77 1006.9
20200329014617 71 159 0.0 0.0 0.00 0.03 0.03 77 1007.0
20200329014115 71 164 0.0 0.0 0.00 0.03 0.03 77 1007.0
20200329013614 71 158 0.0 0.0 0.00 0.03 0.03 78 1007.2
20200329013116 71 154 0.0 0.0 0.00 0.03 0.03 78 1006.9
20200329012614 71 171 0.0 0.0 0.00 0.03 0.03 78 1007.0
20200329012114 71 175 0.0 0.0 0.00 0.03 0.03 77 1006.5
20200329011612 72 175 0.0 0.0 0.00 0.03 0.03 77 1006.4
20200329011114 72 175 0.0 0.0 0.00 0.03 0.03 76 1006.3
20200329010609 72 175 0.0 0.0 0.00 0.03 0.03 75 1006.6
20200329010108 73 200 0.0 0.0 0.00 0.03 0.03 75 1006.5
20200329005609 73 200 0.0 0.0 0.00 0.03 0.03 74 1006.7
20200329005110 73 102 0.0 0.0 0.00 0.03 0.03 74 1006.5
20200329004618 73 88 0.0 0.0 0.00 0.03 0.03 73 1006.1
20200329004110 74 86 0.0 0.0 0.00 0.03 0.03 73 1005.6
20200329003604 74 86 0.0 0.0 0.00 0.03 0.03 72 1005.5
20200329003105 74 178 0.0 0.0 0.00 0.03 0.03 72 1005.6
20200329002604 74 172 0.0 0.0 0.00 0.03 0.03 72 1006.3
20200329002104 74 171 0.0 0.0 0.00 0.03 0.03 72 1006.2
20200329001609 74 80 0.0 0.0 0.00 0.03 0.03 72 1006.4
20200329001109 74 180 0.0 0.0 0.00 0.03 0.03 71 1006.8
20200329000603 75 188 0.0 0.0 0.00 0.03 0.03 71 1007.1
20200329000101 75 121 0.0 1.0 0.00 0.03 0.03 71 1007.3
20200328235601 75 171 0.0 1.0 0.00 0.03 0.03 71 1007.2
20200328235100 75 116 0.0 1.0 0.00 0.03 0.03 71 1007.3
20200328234601 75 182 0.0 1.0 0.00 0.03 0.03 71 1007.0
20200328234101 75 225 0.0 0.0 0.00 0.03 0.03 71 1007.2
20200328233557 76 242 0.0 1.0 0.00 0.03 0.03 71 1007.2
20200328233057 76 257 0.0 1.0 0.00 0.03 0.03 71 1007.0
20200328232558 76 27 0.0 0.0 0.00 0.03 0.03 71 1006.8
20200328232057 76 222 0.0 1.0 0.00 0.03 0.03 71 1006.9
20200328231557 76 207 0.0 1.0 0.00 0.03 0.03 71 1006.6
20200328231058 76 92 0.0 1.0 0.00 0.03 0.03 72 1006.9
20200328230557 76 227 0.0 1.0 0.00 0.03 0.03 71 1006.9
20200328230125 76 224 0.0 3.0 0.00 0.03 0.03 72 1007.0
20200328225556 76 159 0.0 3.0 0.00 0.03 0.03 72 1006.8
20200328225050 76 123 0.0 1.0 0.00 0.03 0.03 72 1006.8
20200328224550 76 294 0.0 1.0 0.00 0.03 0.03 72 1006.8
20200328224047 77 215 0.0 0.0 0.00 0.03 0.03 72 1007.0
20200328223545 77 250 0.0 0.0 0.00 0.03 0.03 72 1006.8
20200328223045 77 155 0.0 0.0 0.00 0.03 0.03 72 1006.9
20200328222538 77 150 0.0 0.0 0.00 0.03 0.03 72 1007.0
20200328222037 77 218 0.0 0.0 0.00 0.03 0.03 72 1007.0
20200328221536 77 199 0.0 0.0 0.00 0.03 0.03 73 1007.0
20200328221033 77 252 0.0 0.0 0.00 0.03 0.03 72 1007.0
20200328220533 78 252 0.0 0.0 0.00 0.03 0.03 73 1006.8
20200328220030 78 252 0.0 0.0 0.00 0.03 0.03 73 1006.6
20200328215531 78 252 0.0 0.0 0.00 0.03 0.03 73 1006.4
20200328215029 78 252 0.0 0.0 0.00 0.03 0.03 72 1006.4
20200328214527 78 252 0.0 0.0 0.00 0.03 0.03 72 1006.4
20200328214026 78 252 0.0 0.0 0.00 0.03 0.03 72 1006.4
20200328213524 78 252 0.0 0.0 0.00 0.03 0.03 72 1006.5
20200328213025 78 252 0.0 0.0 0.00 0.03 0.03 71 1006.6
20200328212523 78 252 0.0 0.0 0.00 0.03 0.03 72 1006.7
20200328212022 78 252 0.0 0.0 0.00 0.03 0.03 71 1006.6
20200328211518 78 252 0.0 0.0 0.00 0.03 0.03 72 1006.6
20200328211015 78 252 0.0 0.0 0.00 0.03 0.03 71 1006.6
20200328210518 77 252 0.0 0.0 0.00 0.03 0.03 72 1006.4
20200328210013 77 252 0.0 0.0 0.00 0.03 0.03 73 1006.6
20200328205511 77 252 0.0 0.0 0.00 0.03 0.03 73 1006.6
20200328205011 77 252 0.0 0.0 0.00 0.03 0.03 75 1006.6
20200328204512 76 252 0.0 0.0 0.00 0.03 0.03 75 1006.6
20200328204009 76 252 0.0 0.0 0.00 0.03 0.03 75 1006.5
20200328203509 76 252 0.0 0.0 0.00 0.03 0.03 74 1006.9
20200328203004 77 252 0.0 0.0 0.00 0.03 0.03 77 1006.8
20200328202501 77 252 0.0 0.0 0.00 0.03 0.03 76 1007.0
20200328201959 77 252 0.0 0.0 0.00 0.03 0.03 76 1007.0
20200328201457 77 252 0.0 0.0 0.00 0.03 0.03 76 1007.1
20200328200957 77 252 0.0 0.0 0.00 0.03 0.03 75 1007.1
20200328200452 77 261 0.0 0.0 0.00 0.03 0.03 76 1007.0
20200328195950 76 261 0.0 0.0 0.00 0.03 0.03 75 1007.0
20200328195447 76 249 0.0 0.0 0.00 0.03 0.03 76 1007.1
20200328194945 76 245 0.0 0.0 0.00 0.03 0.03 76 1006.9
20200328194445 76 246 0.0 0.0 0.00 0.03 0.03 76 1006.8
20200328193939 76 246 0.0 0.0 0.00 0.03 0.03 75 1006.7
20200328193438 76 241 0.0 1.0 0.01 0.03 0.03 74 1006.6
20200328192935 76 257 0.0 1.0 0.02 0.03 0.03 73 1006.7
20200328192435 76 192 0.0 0.0 0.03 0.03 0.03 74 1006.6
20200328191933 76 258 0.0 0.0 0.03 0.03 0.03 76 1006.7
20200328191428 76 221 0.0 0.0 0.03 0.03 0.03 78 1006.7
20200328190925 76 257 0.0 1.0 0.03 0.04 0.03 76 1006.8
20200328190423 76 261 0.0 1.0 0.03 0.04 0.03 77 1006.7
20200328185921 76 253 0.0 0.0 0.03 0.04 0.03 79 1006.9
20200328185421 76 253 0.0 1.0 0.03 0.04 0.03 78 1006.8
20200328184920 76 181 0.0 1.0 0.03 0.04 0.03 81 1007.0
20200328184419 75 181 0.0 1.0 0.03 0.05 0.03 82 1006.9
20200328183919 74 178 0.0 1.0 0.03 0.05 0.03 83 1006.9
20200328183417 74 178 0.0 1.0 0.02 0.05 0.02 81 1007.0
20200328182916 75 174 0.0 1.0 0.01 0.04 0.02 78 1006.8
20200328182415 75 83 0.0 0.0 0.00 0.03 0.00 76 1006.9
20200328181909 75 176 0.0 0.0 0.00 0.03 0.00 75 1007.0
20200328181408 75 186 0.0 0.0 0.00 0.03 0.00 74 1007.0
20200328180908 75 151 0.0 1.0 0.00 0.03 0.00 73 1007.2
20200328180410 75 254 0.0 2.0 0.00 0.03 0.00 73 1007.2
20200328175910 75 259 0.0 2.0 0.00 0.03 0.00 73 1007.0
20200328175411 75 141 0.0 5.0 0.00 0.03 0.00 74 1007.2
20200328174906 75 231 0.0 5.0 0.00 0.03 0.00 73 1007.1
20200328174404 75 251 0.0 0.0 0.00 0.03 0.00 73 1007.2
20200328173902 75 182 0.0 0.0 0.00 0.03 0.00 73 1007.1
20200328173403 76 263 0.0 0.0 0.00 0.03 0.00 72 1007.3
20200328172903 76 238 0.0 0.0 0.00 0.03 0.00 72 1007.3
20200328172403 76 323 0.0 0.0 0.00 0.03 0.00 72 1007.2
20200328171901 76 194 0.0 0.0 0.00 0.03 0.00 71 1007.0
20200328171358 77 146 0.0 0.0 0.00 0.03 0.00 71 1007.0
20200328170900 77 193 0.0 0.0 0.00 0.03 0.00 70 1007.2
20200328170402 77 150 0.0 0.0 0.00 0.03 0.00 71 1007.2
20200328165856 77 144 0.0 0.0 0.00 0.03 0.00 71 1007.0
20200328165357 77 234 0.0 0.0 0.00 0.03 0.00 71 1007.1
20200328164853 76 208 0.0 0.0 0.00 0.03 0.00 72 1006.9
20200328164354 76 257 0.0 0.0 0.00 0.03 0.00 72 1007.1
20200328163850 76 157 0.0 9.0 0.00 0.03 0.00 73 1007.2
20200328163351 76 151 0.0 12.0 0.00 0.03 0.00 72 1007.3
20200328162851 76 121 0.0 12.0 0.00 0.03 0.00 72 1007.3
20200328162353 76 253 0.0 9.0 0.00 0.03 0.00 72 1007.1
20200328161847 76 169 0.0 4.0 0.00 0.03 0.00 72 1007.0
20200328161346 76 165 0.0 4.0 0.00 0.03 0.00 72 1006.9
20200328160846 76 254 0.0 3.0 0.00 0.03 0.00 72 1006.9
20200328160348 76 153 0.0 2.0 0.00 0.03 0.00 73 1006.8
20200328155845 76 181 0.0 0.0 0.00 0.03 0.00 73 1007.1
20200328155345 76 244 0.0 0.0 0.00 0.03 0.00 73 1007.1
20200328154841 76 162 0.0 3.0 0.00 0.03 0.00 74 1006.9
20200328154342 76 169 0.0 3.0 0.00 0.03 0.00 73 1006.9
20200328153842 76 258 0.0 0.0 0.00 0.03 0.00 74 1006.9
20200328153341 75 143 0.0 1.0 0.00 0.03 0.00 75 1006.9
20200328152839 75 265 0.0 1.0 0.00 0.04 0.00 75 1006.9
20200328152339 75 218 0.0 0.0 0.00 0.04 0.00 76 1007.0
20200328151836 75 286 0.0 0.0 0.00 0.05 0.00 77 1007.2
20200328151336 74 300 0.0 0.0 0.00 0.05 0.00 78 1007.3
20200328150837 74 240 0.0 0.0 0.00 0.06 0.00 77 1007.1
20200328150335 74 183 0.0 0.0 0.00 0.06 0.00 77 1007.1
20200328145831 74 202 0.0 0.0 0.00 0.06 0.00 77 1007.2
20200328145335 74 257 0.0 0.0 0.00 0.06 0.00 77 1007.2
20200328144832 74 72 0.0 0.0 0.00 0.06 0.00 77 1007.2
20200328144329 74 63 0.0 3.0 0.00 0.06 0.00 78 1007.3
20200328143830 74 249 0.0 3.0 0.00 0.07 0.00 77 1007.3
20200328143330 74 88 0.0 7.0 0.00 0.07 0.00 78 1007.5
20200328142830 74 182 0.0 7.0 0.00 0.07 0.00 77 1007.4
20200328142331 74 219 0.0 7.0 0.00 0.07 0.00 78 1007.3
20200328141831 74 317 0.0 7.0 0.00 0.07 0.00 77 1007.0
20200328141326 73 232 0.0 2.0 0.00 0.07 0.00 79 1007.0
20200328140826 73 49 0.0 3.0 0.00 0.07 0.00 80 1006.8
20200328140324 72 265 0.0 3.0 0.00 0.08 0.00 81 1006.8
20200328135825 72 259 0.0 1.0 0.00 0.08 0.00 81 1006.8
20200328135322 72 93 0.0 1.0 0.00 0.09 0.00 81 1006.8
20200328134840 71 256 0.0 0.0 0.00 0.09 0.00 82 1006.9
20200328134316 71 247 0.0 6.0 0.00 0.09 0.00 83 1006.9
20200328133815 70 257 0.0 6.0 0.00 0.10 0.00 84 1006.8
20200328133315 70 165 0.0 6.0 0.00 0.10 0.00 84 1006.9
20200328132815 69 227 0.0 1.0 0.00 0.10 0.00 85 1006.8
20200328132313 69 172 0.0 3.0 0.00 0.11 0.00 86 1006.8
20200328131814 68 293 0.0 3.0 0.00 0.11 0.00 86 1006.7
20200328131316 68 50 0.0 3.0 0.00 0.11 0.00 87 1006.8
20200328130813 68 205 0.0 1.0 0.00 0.11 0.00 88 1006.7
20200328130313 67 240 0.0 1.0 0.00 0.12 0.00 88 1006.7
20200328125814 67 144 0.0 6.0 0.00 0.13 0.00 89 1006.7
20200328125308 67 236 0.0 6.0 0.00 0.15 0.00 89 1006.8
20200328124807 66 272 0.0 6.0 0.00 0.16 0.00 90 1006.7
20200328124308 66 71 0.0 1.0 0.00 0.18 0.00 90 1006.6
20200328123807 65 0 0.0 5.0 0.00 0.19 0.00 91 1006.7
20200328123309 65 0 0.0 5.0 0.00 0.19 0.00 91 1006.7
20200328122808 65 0 0.0 3.0 0.00 0.20 0.00 91 1006.6
20200328122439 65 0 0.0 2.0 0.00 0.21 0.00 91 1006.7
20200328121804 65 0 0.0 4.0 0.00 0.22 0.00 91 1006.5
20200328121303 64 182 0.0 4.0 0.00 0.23 0.00 92 1006.6
20200328120804 64 165 0.0 0.0 0.00 0.23 0.00 92 1006.8
20200328120303 64 181 0.0 0.0 0.00 0.23 0.00 93 1006.8
20200328115805 64 0 0.0 0.0 0.00 0.23 0.00 93 1006.8
20200328115300 64 0 0.0 0.0 0.00 0.23 0.00 93 1006.9
20200328114800 64 161 0.0 0.0 0.00 0.23 0.00 93 1007.0
20200328114301 63 185 0.0 0.0 0.00 0.23 0.00 93 1007.2
20200328113759 63 159 0.0 0.0 0.00 0.23 0.00 93 1007.1
20200328113300 63 170 0.0 0.0 0.00 0.23 0.00 93 1007.1
20200328112801 63 225 0.0 0.0 0.00 0.23 0.00 94 1007.0
20200328112255 63 229 0.0 0.0 0.00 0.23 0.00 94 1007.1
20200328111755 63 234 0.0 0.0 0.00 0.23 0.00 95 1007.0
20200328111255 62 242 0.0 0.0 0.00 0.23 0.00 95 1006.8
20200328110755 62 178 0.0 0.0 0.00 0.23 0.00 95 1006.7
20200328110255 62 84 0.0 0.0 0.00 0.23 0.00 95 1006.6
20200328105757 62 168 0.0 0.0 0.00 0.23 0.00 96 1006.5
20200328105257 62 140 0.0 0.0 0.00 0.23 0.00 96 1006.5
20200328104757 62 177 0.0 0.0 0.00 0.23 0.00 96 1006.4
20200328104255 61 177 0.0 0.0 0.00 0.23 0.00 97 1006.4
20200328103756 61 169 0.0 0.0 0.00 0.23 0.00 97 1006.3
20200328103256 61 186 0.0 0.0 0.00 0.23 0.00 97 1006.4
20200328102754 61 171 0.0 0.0 0.00 0.23 0.00 97 1006.4
20200328102251 60 0 0.0 1.0 0.00 0.23 0.00 97 1006.2
20200328101753 60 165 0.0 2.0 0.00 0.23 0.00 98 1006.4
20200328101247 60 0 0.0 2.0 0.00 0.23 0.00 98 1006.4
20200328100748 60 172 0.0 0.0 0.00 0.23 0.00 98 1006.4
20200328100248 59 217 0.0 0.0 0.00 0.23 0.00 98 1006.5
20200328095741 59 0 0.0 0.0 0.00 0.23 0.00 98 1006.5
20200328095241 58 355 0.0 0.0 0.00 0.23 0.00 97 1006.7
20200328094738 58 115 0.0 0.0 0.00 0.23 0.00 97 1006.7
20200328094236 58 115 0.0 0.0 0.00 0.23 0.00 97 1006.5
20200328093735 57 115 0.0 0.0 0.00 0.23 0.00 96 1006.6
20200328093335 57 115 0.0 0.0 0.00 0.23 0.00 96 1006.7
20200328092731 57 115 0.0 0.0 0.00 0.23 0.00 96 1006.8
20200328091231 57 108 0.0 0.0 0.00 0.23 0.00 97 1006.7
20200328090732 57 111 0.0 0.0 0.00 0.23 0.00 97 1006.8
20200328090227 57 111 0.0 0.0 0.00 0.23 0.00 96 1007.1
20200328085727 56 111 0.0 0.0 0.00 0.23 0.00 96 1007.1
20200328085226 56 111 0.0 0.0 0.00 0.23 0.00 96 1007.0
20200328084727 56 111 0.0 0.0 0.00 0.23 0.00 95 1006.9
20200328084224 56 111 0.0 0.0 0.00 0.23 0.00 95 1006.8
20200328083725 56 111 0.0 0.0 0.00 0.23 0.00 94 1006.7
20200328083219 56 111 0.0 0.0 0.00 0.23 0.00 94 1006.6
20200328082717 56 111 0.0 0.0 0.00 0.23 0.00 94 1006.4
20200328082214 57 111 0.0 0.0 0.00 0.23 0.00 94 1006.6
20200328081713 57 111 0.0 0.0 0.00 0.23 0.00 94 1006.5
20200328081212 57 111 0.0 0.0 0.00 0.23 0.00 94 1006.6
20200328080705 57 111 0.0 0.0 0.00 0.23 0.00 94 1006.7
20200328080204 57 111 0.0 0.0 0.00 0.23 0.00 94 1006.8
20200328075703 57 111 0.0 0.0 0.00 0.23 0.00 94 1007.0
20200328075200 58 111 0.0 0.0 0.00 0.23 0.00 93 1007.2
20200328074700 58 111 0.0 0.0 0.00 0.23 0.00 93 1007.4
20200328074154 58 111 0.0 0.0 0.00 0.23 0.00 94 1007.7
20200328073653 58 111 0.0 0.0 0.00 0.23 0.00 93 1007.9
20200328073150 58 111 0.0 0.0 0.00 0.23 0.00 94 1008.2
20200328072649 58 111 0.0 0.0 0.00 0.23 0.00 94 1008.4
20200328072148 58 111 0.0 0.0 0.00 0.23 0.00 94 1008.4
20200328071641 58 111 0.0 0.0 0.00 0.23 0.00 94 1008.6
20200328071139 58 111 0.0 0.0 0.00 0.23 0.00 94 1008.7
20200328070638 58 112 0.0 0.0 0.00 0.23 0.00 93 1008.7
20200328070137 58 112 0.0 0.0 0.00 0.23 0.00 94 1008.8
20200328065636 58 112 0.0 0.0 0.00 0.23 0.00 94 1008.9